sensor_id;sensor_type;location;lat;lon;timestamp;temperature;humidity
32522;DHT22;18963;51.504;5.316;2023-04-03T00:02:14;0.10;99.90
32522;DHT22;18963;51.504;5.316;2023-04-03T00:04:40;0.10;99.90
32522;DHT22;18963;51.504;5.316;2023-04-03T00:07:06;0.10;99.90
32522;DHT22;18963;51.504;5.316;2023-04-03T00:09:31;0.20;99.90
32522;DHT22;18963;51.504;5.316;2023-04-03T00:11:57;0.10;99.90
32522;DHT22;18963;51.504;5.316;2023-04-03T00:14:22;0.10;99.90
32522;DHT22;18963;51.504;5.316;2023-04-03T00:16:48;0.10;99.90
32522;DHT22;18963;51.504;5.316;2023-04-03T00:19:13;0.10;99.90
32522;DHT22;18963;51.504;5.316;2023-04-03T00:21:39;0.10;99.90
32522;DHT22;18963;51.504;5.316;2023-04-03T00:24:05;0.10;99.90
32522;DHT22;18963;51.504;5.316;2023-04-03T00:26:31;0.00;99.90
32522;DHT22;18963;51.504;5.316;2023-04-03T00:28:56;0.00;99.90
32522;DHT22;18963;51.504;5.316;2023-04-03T00:31:22;-0.10;99.90
32522;DHT22;18963;51.504;5.316;2023-04-03T00:33:48;-0.10;99.90
32522;DHT22;18963;51.504;5.316;2023-04-03T00:36:13;-0.10;99.90
32522;DHT22;18963;51.504;5.316;2023-04-03T00:38:39;-0.10;99.90
32522;DHT22;18963;51.504;5.316;2023-04-03T00:41:04;-0.10;99.90
32522;DHT22;18963;51.504;5.316;2023-04-03T00:43:30;-0.10;99.90
32522;DHT22;18963;51.504;5.316;2023-04-03T00:45:58;-0.20;99.90
32522;DHT22;18963;51.504;5.316;2023-04-03T00:48:38;-0.20;99.90
32522;DHT22;18963;51.504;5.316;2023-04-03T00:51:06;-0.20;99.90
32522;DHT22;18963;51.504;5.316;2023-04-03T00:53:34;-0.30;99.90
32522;DHT22;18963;51.504;5.316;2023-04-03T00:56:00;-0.30;99.90
32522;DHT22;18963;51.504;5.316;2023-04-03T00:58:28;-0.30;99.90
32522;DHT22;18963;51.504;5.316;2023-04-03T01:00:58;-0.30;99.90
32522;DHT22;18963;51.504;5.316;2023-04-03T01:03:24;-0.20;99.90
32522;DHT22;18963;51.504;5.316;2023-04-03T01:05:49;-0.30;99.90
32522;DHT22;18963;51.504;5.316;2023-04-03T01:08:15;-0.30;99.90
32522;DHT22;18963;51.504;5.316;2023-04-03T01:10:41;-0.40;99.90
32522;DHT22;18963;51.504;5.316;2023-04-03T01:13:28;-0.40;99.90
32522;DHT22;18963;51.504;5.316;2023-04-03T01:15:52;-0.40;99.90
32522;DHT22;18963;51.504;5.316;2023-04-03T01:18:18;-0.40;99.90
32522;DHT22;18963;51.504;5.316;2023-04-03T01:20:49;-0.30;99.90
32522;DHT22;18963;51.504;5.316;2023-04-03T01:23:27;-0.30;99.90
32522;DHT22;18963;51.504;5.316;2023-04-03T01:25:56;-0.30;99.90
32522;DHT22;18963;51.504;5.316;2023-04-03T01:28:26;-0.30;99.90
32522;DHT22;18963;51.504;5.316;2023-04-03T01:33:37;-0.40;99.90
32522;DHT22;18963;51.504;5.316;2023-04-03T01:36:02;-0.40;99.90
32522;DHT22;18963;51.504;5.316;2023-04-03T01:38:28;-0.40;99.90
32522;DHT22;18963;51.504;5.316;2023-04-03T01:40:54;-0.40;99.90
32522;DHT22;18963;51.504;5.316;2023-04-03T01:43:19;-0.40;99.90
32522;DHT22;18963;51.504;5.316;2023-04-03T01:45:45;-0.50;99.90
32522;DHT22;18963;51.504;5.316;2023-04-03T01:48:12;-0.50;99.90
32522;DHT22;18963;51.504;5.316;2023-04-03T01:50:37;-0.50;99.90
32522;DHT22;18963;51.504;5.316;2023-04-03T01:53:03;-0.40;99.90
32522;DHT22;18963;51.504;5.316;2023-04-03T01:55:28;-0.40;99.90
32522;DHT22;18963;51.504;5.316;2023-04-03T01:57:53;-0.40;99.90
32522;DHT22;18963;51.504;5.316;2023-04-03T02:00:19;-0.40;99.90
32522;DHT22;18963;51.504;5.316;2023-04-03T02:02:45;-0.40;99.90
32522;DHT22;18963;51.504;5.316;2023-04-03T02:05:10;-0.40;99.90
32522;DHT22;18963;51.504;5.316;2023-04-03T02:07:36;-0.40;99.90
32522;DHT22;18963;51.504;5.316;2023-04-03T02:10:02;-0.40;99.90
32522;DHT22;18963;51.504;5.316;2023-04-03T02:12:27;-0.40;99.90
32522;DHT22;18963;51.504;5.316;2023-04-03T02:14:53;-0.40;99.90
32522;DHT22;18963;51.504;5.316;2023-04-03T02:17:18;-0.30;99.90
32522;DHT22;18963;51.504;5.316;2023-04-03T02:19:44;-0.40;99.90
32522;DHT22;18963;51.504;5.316;2023-04-03T02:22:09;-0.40;99.90
32522;DHT22;18963;51.504;5.316;2023-04-03T02:24:35;-0.40;99.90
32522;DHT22;18963;51.504;5.316;2023-04-03T02:27:00;-0.40;99.90
32522;DHT22;18963;51.504;5.316;2023-04-03T02:29:26;-0.30;99.90
32522;DHT22;18963;51.504;5.316;2023-04-03T02:31:51;-0.30;99.90
32522;DHT22;18963;51.504;5.316;2023-04-03T02:34:17;-0.30;99.90
32522;DHT22;18963;51.504;5.316;2023-04-03T02:36:42;-0.40;99.90
32522;DHT22;18963;51.504;5.316;2023-04-03T02:39:08;-0.40;99.90
32522;DHT22;18963;51.504;5.316;2023-04-03T02:41:33;-0.40;99.90
32522;DHT22;18963;51.504;5.316;2023-04-03T02:44:01;-0.40;99.90
32522;DHT22;18963;51.504;5.316;2023-04-03T02:46:26;-0.40;99.90
32522;DHT22;18963;51.504;5.316;2023-04-03T02:48:52;-0.40;99.90
32522;DHT22;18963;51.504;5.316;2023-04-03T02:51:17;-0.40;99.90
32522;DHT22;18963;51.504;5.316;2023-04-03T02:53:43;-0.50;99.90
32522;DHT22;18963;51.504;5.316;2023-04-03T02:56:08;-0.50;99.90
32522;DHT22;18963;51.504;5.316;2023-04-03T02:58:34;-0.40;99.90
32522;DHT22;18963;51.504;5.316;2023-04-03T03:00:59;-0.40;99.90
32522;DHT22;18963;51.504;5.316;2023-04-03T03:03:25;-0.40;99.90
32522;DHT22;18963;51.504;5.316;2023-04-03T03:06:00;-0.40;99.90
32522;DHT22;18963;51.504;5.316;2023-04-03T03:08:25;-0.40;99.90
32522;DHT22;18963;51.504;5.316;2023-04-03T03:10:51;-0.40;99.90
32522;DHT22;18963;51.504;5.316;2023-04-03T03:13:16;-0.30;99.90
32522;DHT22;18963;51.504;5.316;2023-04-03T03:15:42;-0.30;99.90
32522;DHT22;18963;51.504;5.316;2023-04-03T03:18:08;-0.20;99.90
32522;DHT22;18963;51.504;5.316;2023-04-03T03:20:33;-0.20;99.90
32522;DHT22;18963;51.504;5.316;2023-04-03T03:22:59;-0.10;99.90
32522;DHT22;18963;51.504;5.316;2023-04-03T03:25:24;-0.10;99.90
32522;DHT22;18963;51.504;5.316;2023-04-03T03:27:49;-0.10;99.90
32522;DHT22;18963;51.504;5.316;2023-04-03T03:30:15;-0.10;99.90
32522;DHT22;18963;51.504;5.316;2023-04-03T03:32:40;0.00;99.90
32522;DHT22;18963;51.504;5.316;2023-04-03T03:35:06;0.00;99.90
32522;DHT22;18963;51.504;5.316;2023-04-03T03:37:32;0.10;99.90
32522;DHT22;18963;51.504;5.316;2023-04-03T03:39:57;0.20;99.90
32522;DHT22;18963;51.504;5.316;2023-04-03T03:42:23;0.20;99.90
32522;DHT22;18963;51.504;5.316;2023-04-03T03:44:48;0.30;99.90
32522;DHT22;18963;51.504;5.316;2023-04-03T03:47:14;0.30;99.90
32522;DHT22;18963;51.504;5.316;2023-04-03T03:49:39;0.30;99.90
32522;DHT22;18963;51.504;5.316;2023-04-03T03:52:06;0.40;99.90
32522;DHT22;18963;51.504;5.316;2023-04-03T03:54:31;0.40;99.90
32522;DHT22;18963;51.504;5.316;2023-04-03T03:56:57;0.40;99.90
32522;DHT22;18963;51.504;5.316;2023-04-03T03:59:22;0.40;99.90
32522;DHT22;18963;51.504;5.316;2023-04-03T04:01:48;0.50;99.90
32522;DHT22;18963;51.504;5.316;2023-04-03T04:04:13;0.50;99.90
32522;DHT22;18963;51.504;5.316;2023-04-03T04:06:39;0.50;99.90
32522;DHT22;18963;51.504;5.316;2023-04-03T04:09:04;0.50;99.90
32522;DHT22;18963;51.504;5.316;2023-04-03T04:11:30;0.50;99.90
32522;DHT22;18963;51.504;5.316;2023-04-03T04:13:55;0.50;99.90
32522;DHT22;18963;51.504;5.316;2023-04-03T04:16:21;0.60;99.90
32522;DHT22;18963;51.504;5.316;2023-04-03T04:18:46;0.60;99.90
32522;DHT22;18963;51.504;5.316;2023-04-03T04:21:12;0.60;99.90
32522;DHT22;18963;51.504;5.316;2023-04-03T04:23:37;0.60;99.90
32522;DHT22;18963;51.504;5.316;2023-04-03T04:26:03;0.60;99.90
32522;DHT22;18963;51.504;5.316;2023-04-03T04:28:28;0.70;99.90
32522;DHT22;18963;51.504;5.316;2023-04-03T04:30:54;0.70;99.90
32522;DHT22;18963;51.504;5.316;2023-04-03T04:33:20;0.70;99.90
32522;DHT22;18963;51.504;5.316;2023-04-03T04:35:47;0.60;99.90
32522;DHT22;18963;51.504;5.316;2023-04-03T04:38:12;0.70;99.90
32522;DHT22;18963;51.504;5.316;2023-04-03T04:40:38;0.70;99.90
32522;DHT22;18963;51.504;5.316;2023-04-03T04:43:03;0.60;99.90
32522;DHT22;18963;51.504;5.316;2023-04-03T04:45:29;0.70;99.90
32522;DHT22;18963;51.504;5.316;2023-04-03T04:47:55;0.70;99.90
32522;DHT22;18963;51.504;5.316;2023-04-03T04:50:20;0.70;99.90
32522;DHT22;18963;51.504;5.316;2023-04-03T04:52:46;0.70;99.90
32522;DHT22;18963;51.504;5.316;2023-04-03T04:55:11;0.60;99.90
32522;DHT22;18963;51.504;5.316;2023-04-03T04:57:37;0.60;99.90
32522;DHT22;18963;51.504;5.316;2023-04-03T05:00:04;0.50;99.90
32522;DHT22;18963;51.504;5.316;2023-04-03T05:02:32;0.60;99.90
32522;DHT22;18963;51.504;5.316;2023-04-03T05:04:57;0.60;99.90
32522;DHT22;18963;51.504;5.316;2023-04-03T05:07:23;0.50;99.90
32522;DHT22;18963;51.504;5.316;2023-04-03T05:09:49;0.50;99.90
32522;DHT22;18963;51.504;5.316;2023-04-03T05:12:14;0.50;99.90
32522;DHT22;18963;51.504;5.316;2023-04-03T05:14:40;0.50;99.90
32522;DHT22;18963;51.504;5.316;2023-04-03T05:17:05;0.50;99.90
32522;DHT22;18963;51.504;5.316;2023-04-03T05:19:31;0.50;99.90
32522;DHT22;18963;51.504;5.316;2023-04-03T05:21:56;0.50;99.90
32522;DHT22;18963;51.504;5.316;2023-04-03T05:24:22;0.60;99.90
32522;DHT22;18963;51.504;5.316;2023-04-03T05:26:47;0.60;99.90
32522;DHT22;18963;51.504;5.316;2023-04-03T05:29:13;0.70;99.90
32522;DHT22;18963;51.504;5.316;2023-04-03T05:31:38;0.80;99.90
32522;DHT22;18963;51.504;5.316;2023-04-03T05:34:03;0.90;99.90
32522;DHT22;18963;51.504;5.316;2023-04-03T05:36:29;0.90;99.90
32522;DHT22;18963;51.504;5.316;2023-04-03T05:38:55;0.90;99.90
32522;DHT22;18963;51.504;5.316;2023-04-03T05:41:22;1.00;99.90
32522;DHT22;18963;51.504;5.316;2023-04-03T05:43:47;1.10;99.90
32522;DHT22;18963;51.504;5.316;2023-04-03T05:46:14;1.20;99.90
32522;DHT22;18963;51.504;5.316;2023-04-03T05:48:40;1.20;99.90
32522;DHT22;18963;51.504;5.316;2023-04-03T05:51:06;1.30;99.90
32522;DHT22;18963;51.504;5.316;2023-04-03T05:53:33;1.40;99.90
32522;DHT22;18963;51.504;5.316;2023-04-03T05:56:00;1.50;99.90
32522;DHT22;18963;51.504;5.316;2023-04-03T05:58:26;1.60;99.90
32522;DHT22;18963;51.504;5.316;2023-04-03T06:00:53;1.70;99.90
32522;DHT22;18963;51.504;5.316;2023-04-03T06:03:19;1.80;99.90
32522;DHT22;18963;51.504;5.316;2023-04-03T06:05:44;1.80;99.90
32522;DHT22;18963;51.504;5.316;2023-04-03T06:08:11;2.00;99.90
32522;DHT22;18963;51.504;5.316;2023-04-03T06:10:37;2.10;99.90
32522;DHT22;18963;51.504;5.316;2023-04-03T06:13:03;2.20;99.90
32522;DHT22;18963;51.504;5.316;2023-04-03T06:15:29;2.30;99.90
32522;DHT22;18963;51.504;5.316;2023-04-03T06:17:54;2.30;99.90
32522;DHT22;18963;51.504;5.316;2023-04-03T06:20:20;2.40;99.90
32522;DHT22;18963;51.504;5.316;2023-04-03T06:22:47;2.50;99.90
32522;DHT22;18963;51.504;5.316;2023-04-03T06:25:12;2.50;99.90
32522;DHT22;18963;51.504;5.316;2023-04-03T06:27:38;2.60;99.90
32522;DHT22;18963;51.504;5.316;2023-04-03T06:30:04;2.70;99.90
32522;DHT22;18963;51.504;5.316;2023-04-03T06:32:30;2.70;99.90
32522;DHT22;18963;51.504;5.316;2023-04-03T06:34:56;2.80;99.90
32522;DHT22;18963;51.504;5.316;2023-04-03T06:37:22;2.90;99.90
32522;DHT22;18963;51.504;5.316;2023-04-03T06:39:51;3.00;99.90
32522;DHT22;18963;51.504;5.316;2023-04-03T06:42:17;3.10;99.90
32522;DHT22;18963;51.504;5.316;2023-04-03T06:44:42;3.20;99.90
32522;DHT22;18963;51.504;5.316;2023-04-03T06:47:09;3.30;99.90
32522;DHT22;18963;51.504;5.316;2023-04-03T06:49:39;3.40;99.90
32522;DHT22;18963;51.504;5.316;2023-04-03T06:52:05;3.50;99.90
32522;DHT22;18963;51.504;5.316;2023-04-03T06:54:31;3.70;99.90
32522;DHT22;18963;51.504;5.316;2023-04-03T06:56:57;3.80;99.90
32522;DHT22;18963;51.504;5.316;2023-04-03T06:59:22;3.90;99.90
32522;DHT22;18963;51.504;5.316;2023-04-03T07:01:48;3.90;99.90
32522;DHT22;18963;51.504;5.316;2023-04-03T07:04:14;4.10;99.90
32522;DHT22;18963;51.504;5.316;2023-04-03T07:06:40;4.30;99.90
32522;DHT22;18963;51.504;5.316;2023-04-03T07:09:07;4.40;99.90
32522;DHT22;18963;51.504;5.316;2023-04-03T07:11:32;4.50;99.90
32522;DHT22;18963;51.504;5.316;2023-04-03T07:13:58;4.60;99.90
32522;DHT22;18963;51.504;5.316;2023-04-03T07:16:24;4.70;99.90
32522;DHT22;18963;51.504;5.316;2023-04-03T07:18:49;4.80;99.90
32522;DHT22;18963;51.504;5.316;2023-04-03T07:21:15;4.90;99.90
32522;DHT22;18963;51.504;5.316;2023-04-03T07:23:40;4.80;99.90
32522;DHT22;18963;51.504;5.316;2023-04-03T07:26:05;5.00;99.90
32522;DHT22;18963;51.504;5.316;2023-04-03T07:28:31;5.00;99.90
32522;DHT22;18963;51.504;5.316;2023-04-03T07:31:05;5.10;99.90
32522;DHT22;18963;51.504;5.316;2023-04-03T07:33:31;5.00;99.90
32522;DHT22;18963;51.504;5.316;2023-04-03T07:35:57;5.10;99.90
32522;DHT22;18963;51.504;5.316;2023-04-03T07:38:23;5.20;99.90
32522;DHT22;18963;51.504;5.316;2023-04-03T07:40:49;5.30;99.90
32522;DHT22;18963;51.504;5.316;2023-04-03T07:43:15;5.40;99.90
32522;DHT22;18963;51.504;5.316;2023-04-03T07:45:41;5.50;99.90
32522;DHT22;18963;51.504;5.316;2023-04-03T07:48:06;5.70;99.90
32522;DHT22;18963;51.504;5.316;2023-04-03T07:50:32;5.80;99.90
32522;DHT22;18963;51.504;5.316;2023-04-03T07:52:58;6.00;99.90
32522;DHT22;18963;51.504;5.316;2023-04-03T07:55:24;6.00;99.90
32522;DHT22;18963;51.504;5.316;2023-04-03T07:57:49;6.10;99.90
32522;DHT22;18963;51.504;5.316;2023-04-03T08:00:15;6.20;99.90
32522;DHT22;18963;51.504;5.316;2023-04-03T08:02:43;6.30;99.90
32522;DHT22;18963;51.504;5.316;2023-04-03T08:05:09;6.40;99.90
32522;DHT22;18963;51.504;5.316;2023-04-03T08:07:36;6.50;99.90
32522;DHT22;18963;51.504;5.316;2023-04-03T08:10:02;6.70;99.90
32522;DHT22;18963;51.504;5.316;2023-04-03T08:12:27;6.90;99.90
32522;DHT22;18963;51.504;5.316;2023-04-03T08:14:55;7.10;99.90
32522;DHT22;18963;51.504;5.316;2023-04-03T08:17:21;7.20;99.90
32522;DHT22;18963;51.504;5.316;2023-04-03T08:19:46;7.40;99.90
32522;DHT22;18963;51.504;5.316;2023-04-03T08:22:12;7.40;99.90
32522;DHT22;18963;51.504;5.316;2023-04-03T08:24:37;7.40;99.90
32522;DHT22;18963;51.504;5.316;2023-04-03T08:27:03;7.30;99.90
32522;DHT22;18963;51.504;5.316;2023-04-03T08:29:29;7.30;99.90
32522;DHT22;18963;51.504;5.316;2023-04-03T08:31:54;7.20;99.90
32522;DHT22;18963;51.504;5.316;2023-04-03T08:34:20;7.20;99.90
32522;DHT22;18963;51.504;5.316;2023-04-03T08:36:46;7.40;99.90
32522;DHT22;18963;51.504;5.316;2023-04-03T08:39:12;7.50;99.90
32522;DHT22;18963;51.504;5.316;2023-04-03T08:44:15;7.90;99.90
32522;DHT22;18963;51.504;5.316;2023-04-03T08:46:54;8.00;99.90
32522;DHT22;18963;51.504;5.316;2023-04-03T08:49:25;8.00;99.90
32522;DHT22;18963;51.504;5.316;2023-04-03T08:51:52;8.10;99.90
32522;DHT22;18963;51.504;5.316;2023-04-03T08:54:26;8.20;99.90
32522;DHT22;18963;51.504;5.316;2023-04-03T08:56:53;8.30;99.90
32522;DHT22;18963;51.504;5.316;2023-04-03T08:59:21;8.20;99.90
32522;DHT22;18963;51.504;5.316;2023-04-03T09:01:49;8.20;99.90
32522;DHT22;18963;51.504;5.316;2023-04-03T09:04:15;8.30;99.90
32522;DHT22;18963;51.504;5.316;2023-04-03T09:06:42;8.40;99.90
32522;DHT22;18963;51.504;5.316;2023-04-03T09:09:12;8.60;99.90
32522;DHT22;18963;51.504;5.316;2023-04-03T09:17:13;9.20;97.60
32522;DHT22;18963;51.504;5.316;2023-04-03T09:19:53;9.20;98.90
32522;DHT22;18963;51.504;5.316;2023-04-03T09:22:23;9.30;98.80
32522;DHT22;18963;51.504;5.316;2023-04-03T09:24:55;9.40;98.70
32522;DHT22;18963;51.504;5.316;2023-04-03T09:27:22;9.40;96.20
32522;DHT22;18963;51.504;5.316;2023-04-03T09:29:48;9.50;95.80
32522;DHT22;18963;51.504;5.316;2023-04-03T09:32:19;9.50;90.90
32522;DHT22;18963;51.504;5.316;2023-04-03T09:34:46;9.50;85.10
32522;DHT22;18963;51.504;5.316;2023-04-03T09:37:17;9.60;90.10
32522;DHT22;18963;51.504;5.316;2023-04-03T09:39:57;9.70;90.60
32522;DHT22;18963;51.504;5.316;2023-04-03T09:42:24;9.90;78.60
32522;DHT22;18963;51.504;5.316;2023-04-03T09:44:54;9.90;77.50
32522;DHT22;18963;51.504;5.316;2023-04-03T09:47:26;9.90;81.10
32522;DHT22;18963;51.504;5.316;2023-04-03T09:52:34;10.00;85.40
32522;DHT22;18963;51.504;5.316;2023-04-03T09:55:33;9.90;82.50
32522;DHT22;18963;51.504;5.316;2023-04-03T09:57:59;9.80;86.80
32522;DHT22;18963;51.504;5.316;2023-04-03T10:02:51;9.80;78.70
32522;DHT22;18963;51.504;5.316;2023-04-03T10:07:52;9.70;68.70
32522;DHT22;18963;51.504;5.316;2023-04-03T10:10:18;9.50;66.20
32522;DHT22;18963;51.504;5.316;2023-04-03T10:12:45;9.50;67.10
32522;DHT22;18963;51.504;5.316;2023-04-03T10:15:14;9.50;71.40
32522;DHT22;18963;51.504;5.316;2023-04-03T10:17:49;9.70;71.30
32522;DHT22;18963;51.504;5.316;2023-04-03T10:27:55;9.80;65.70
32522;DHT22;18963;51.504;5.316;2023-04-03T10:38:20;10.30;62.30
32522;DHT22;18963;51.504;5.316;2023-04-03T10:43:25;10.30;64.30
32522;DHT22;18963;51.504;5.316;2023-04-03T10:46:00;10.40;64.50
32522;DHT22;18963;51.504;5.316;2023-04-03T10:50:58;10.30;62.00
32522;DHT22;18963;51.504;5.316;2023-04-03T10:56:10;10.40;64.30
32522;DHT22;18963;51.504;5.316;2023-04-03T10:58:39;10.60;69.30
32522;DHT22;18963;51.504;5.316;2023-04-03T11:01:06;10.80;68.30
32522;DHT22;18963;51.504;5.316;2023-04-03T11:03:35;11.10;65.60
32522;DHT22;18963;51.504;5.316;2023-04-03T11:06:02;11.00;62.30
32522;DHT22;18963;51.504;5.316;2023-04-03T11:08:48;11.00;62.30
32522;DHT22;18963;51.504;5.316;2023-04-03T11:11:20;10.70;61.20
32522;DHT22;18963;51.504;5.316;2023-04-03T11:16:33;11.30;63.10
32522;DHT22;18963;51.504;5.316;2023-04-03T11:19:02;11.40;59.50
32522;DHT22;18963;51.504;5.316;2023-04-03T11:21:39;11.40;59.40
32522;DHT22;18963;51.504;5.316;2023-04-03T11:24:09;11.30;59.00
32522;DHT22;18963;51.504;5.316;2023-04-03T11:26:40;11.40;60.80
32522;DHT22;18963;51.504;5.316;2023-04-03T11:29:09;11.60;62.30
32522;DHT22;18963;51.504;5.316;2023-04-03T11:34:27;11.90;60.00
32522;DHT22;18963;51.504;5.316;2023-04-03T11:36:58;11.90;57.40
32522;DHT22;18963;51.504;5.316;2023-04-03T11:39:26;12.00;58.80
32522;DHT22;18963;51.504;5.316;2023-04-03T11:41:53;12.10;58.00
32522;DHT22;18963;51.504;5.316;2023-04-03T11:44:28;12.40;57.60
32522;DHT22;18963;51.504;5.316;2023-04-03T11:46:55;12.50;56.90
32522;DHT22;18963;51.504;5.316;2023-04-03T11:52:09;12.80;54.40
32522;DHT22;18963;51.504;5.316;2023-04-03T11:59:50;13.30;51.50
32522;DHT22;18963;51.504;5.316;2023-04-03T12:02:35;13.20;52.10
32522;DHT22;18963;51.504;5.316;2023-04-03T12:10:33;13.80;48.80
32522;DHT22;18963;51.504;5.316;2023-04-03T12:12:59;13.80;50.20
32522;DHT22;18963;51.504;5.316;2023-04-03T12:20:56;14.40;49.00
32522;DHT22;18963;51.504;5.316;2023-04-03T12:25:50;14.00;46.50
32522;DHT22;18963;51.504;5.316;2023-04-03T12:28:16;13.90;48.00
32522;DHT22;18963;51.504;5.316;2023-04-03T12:30:42;13.50;47.70
32522;DHT22;18963;51.504;5.316;2023-04-03T12:33:27;12.90;46.60
32522;DHT22;18963;51.504;5.316;2023-04-03T12:36:07;12.50;49.50
32522;DHT22;18963;51.504;5.316;2023-04-03T12:46:58;10.70;51.80
32522;DHT22;18963;51.504;5.316;2023-04-03T12:49:10;10.60;51.80
32522;DHT22;18963;51.504;5.316;2023-04-03T12:51:43;10.20;51.40
32522;DHT22;18963;51.504;5.316;2023-04-03T12:54:13;9.90;53.20
32522;DHT22;18963;51.504;5.316;2023-04-03T12:56:40;9.60;53.30
32522;DHT22;18963;51.504;5.316;2023-04-03T12:59:13;9.50;53.70
32522;DHT22;18963;51.504;5.316;2023-04-03T13:01:39;9.50;52.90
32522;DHT22;18963;51.504;5.316;2023-04-03T13:04:04;9.40;54.70
32522;DHT22;18963;51.504;5.316;2023-04-03T13:06:32;9.30;54.00
32522;DHT22;18963;51.504;5.316;2023-04-03T13:09:00;9.20;53.90
32522;DHT22;18963;51.504;5.316;2023-04-03T13:11:36;9.20;54.10
32522;DHT22;18963;51.504;5.316;2023-04-03T13:14:04;9.10;53.80
32522;DHT22;18963;51.504;5.316;2023-04-03T13:16:30;9.00;54.10
32522;DHT22;18963;51.504;5.316;2023-04-03T13:18:57;9.00;55.30
32522;DHT22;18963;51.504;5.316;2023-04-03T13:21:27;8.90;55.00
32522;DHT22;18963;51.504;5.316;2023-04-03T13:23:54;8.90;56.90
32522;DHT22;18963;51.504;5.316;2023-04-03T13:26:21;8.90;57.60
32522;DHT22;18963;51.504;5.316;2023-04-03T13:28:48;8.80;56.70
32522;DHT22;18963;51.504;5.316;2023-04-03T13:31:19;8.70;59.20
32522;DHT22;18963;51.504;5.316;2023-04-03T13:36:19;8.80;56.80
32522;DHT22;18963;51.504;5.316;2023-04-03T13:38:46;8.70;56.60
32522;DHT22;18963;51.504;5.316;2023-04-03T13:43:55;8.70;57.40
32522;DHT22;18963;51.504;5.316;2023-04-03T13:46:23;8.70;56.70
32522;DHT22;18963;51.504;5.316;2023-04-03T13:48:53;8.70;58.30
32522;DHT22;18963;51.504;5.316;2023-04-03T13:51:21;8.60;57.50
32522;DHT22;18963;51.504;5.316;2023-04-03T13:53:54;8.60;56.80
32522;DHT22;18963;51.504;5.316;2023-04-03T13:56:25;8.50;58.20
32522;DHT22;18963;51.504;5.316;2023-04-03T13:59:00;8.50;58.90
32522;DHT22;18963;51.504;5.316;2023-04-03T14:01:25;8.60;59.50
32522;DHT22;18963;51.504;5.316;2023-04-03T14:03:59;8.60;59.10
32522;DHT22;18963;51.504;5.316;2023-04-03T14:06:27;8.60;59.90
32522;DHT22;18963;51.504;5.316;2023-04-03T14:08:54;8.60;61.30
32522;DHT22;18963;51.504;5.316;2023-04-03T14:11:21;8.50;62.10
32522;DHT22;18963;51.504;5.316;2023-04-03T14:13:47;8.60;63.90
32522;DHT22;18963;51.504;5.316;2023-04-03T14:16:15;8.60;59.50
32522;DHT22;18963;51.504;5.316;2023-04-03T14:18:42;8.50;60.00
32522;DHT22;18963;51.504;5.316;2023-04-03T14:21:09;8.50;62.30
32522;DHT22;18963;51.504;5.316;2023-04-03T14:23:35;8.50;62.50
32522;DHT22;18963;51.504;5.316;2023-04-03T14:26:01;8.50;62.60
32522;DHT22;18963;51.504;5.316;2023-04-03T14:28:27;8.50;63.30
32522;DHT22;18963;51.504;5.316;2023-04-03T14:30:52;8.40;64.60
32522;DHT22;18963;51.504;5.316;2023-04-03T14:33:19;8.50;65.30
32522;DHT22;18963;51.504;5.316;2023-04-03T14:35:45;8.40;64.00
32522;DHT22;18963;51.504;5.316;2023-04-03T14:38:21;8.40;63.90
32522;DHT22;18963;51.504;5.316;2023-04-03T14:40:47;8.40;65.20
32522;DHT22;18963;51.504;5.316;2023-04-03T14:43:12;8.40;65.80
32522;DHT22;18963;51.504;5.316;2023-04-03T14:45:38;8.40;64.70
32522;DHT22;18963;51.504;5.316;2023-04-03T14:48:04;8.40;69.70
32522;DHT22;18963;51.504;5.316;2023-04-03T14:50:30;8.40;66.60
32522;DHT22;18963;51.504;5.316;2023-04-03T14:52:57;8.40;64.30
32522;DHT22;18963;51.504;5.316;2023-04-03T14:55:23;8.40;64.10
32522;DHT22;18963;51.504;5.316;2023-04-03T14:57:49;8.40;63.20
32522;DHT22;18963;51.504;5.316;2023-04-03T15:00:16;8.40;64.80
32522;DHT22;18963;51.504;5.316;2023-04-03T15:02:42;8.40;65.30
32522;DHT22;18963;51.504;5.316;2023-04-03T15:05:08;8.40;66.90
32522;DHT22;18963;51.504;5.316;2023-04-03T15:07:38;8.40;67.40
32522;DHT22;18963;51.504;5.316;2023-04-03T15:12:39;8.40;70.00
32522;DHT22;18963;51.504;5.316;2023-04-03T15:15:05;8.40;68.20
32522;DHT22;18963;51.504;5.316;2023-04-03T15:17:31;8.30;68.10
32522;DHT22;18963;51.504;5.316;2023-04-03T15:19:56;8.30;72.40
32522;DHT22;18963;51.504;5.316;2023-04-03T15:22:23;8.30;66.90
32522;DHT22;18963;51.504;5.316;2023-04-03T15:24:48;8.30;68.90
32522;DHT22;18963;51.504;5.316;2023-04-03T15:27:14;8.30;67.80
32522;DHT22;18963;51.504;5.316;2023-04-03T15:29:41;8.30;67.00
32522;DHT22;18963;51.504;5.316;2023-04-03T15:32:08;8.30;69.10
32522;DHT22;18963;51.504;5.316;2023-04-03T15:34:37;8.30;68.70
32522;DHT22;18963;51.504;5.316;2023-04-03T15:37:02;8.20;70.80
32522;DHT22;18963;51.504;5.316;2023-04-03T15:39:28;8.20;68.70
32522;DHT22;18963;51.504;5.316;2023-04-03T15:41:54;8.20;71.10
32522;DHT22;18963;51.504;5.316;2023-04-03T15:44:20;8.20;70.50
32522;DHT22;18963;51.504;5.316;2023-04-03T15:46:46;8.20;72.40
32522;DHT22;18963;51.504;5.316;2023-04-03T15:49:12;8.10;71.40
32522;DHT22;18963;51.504;5.316;2023-04-03T15:51:38;8.10;73.60
32522;DHT22;18963;51.504;5.316;2023-04-03T15:54:04;8.20;71.50
32522;DHT22;18963;51.504;5.316;2023-04-03T15:56:29;8.10;73.40
32522;DHT22;18963;51.504;5.316;2023-04-03T15:58:55;8.10;75.10
32522;DHT22;18963;51.504;5.316;2023-04-03T16:01:21;8.20;72.90
32522;DHT22;18963;51.504;5.316;2023-04-03T16:03:46;8.10;71.20
32522;DHT22;18963;51.504;5.316;2023-04-03T16:06:13;8.10;72.00
32522;DHT22;18963;51.504;5.316;2023-04-03T16:08:38;8.10;73.50
32522;DHT22;18963;51.504;5.316;2023-04-03T16:11:04;8.10;73.60
32522;DHT22;18963;51.504;5.316;2023-04-03T16:13:30;8.10;76.40
32522;DHT22;18963;51.504;5.316;2023-04-03T16:15:55;8.10;76.70
32522;DHT22;18963;51.504;5.316;2023-04-03T16:18:22;8.00;75.70
32522;DHT22;18963;51.504;5.316;2023-04-03T16:20:48;8.00;76.30
32522;DHT22;18963;51.504;5.316;2023-04-03T16:23:13;8.00;74.80
32522;DHT22;18963;51.504;5.316;2023-04-03T16:25:39;8.00;73.70
32522;DHT22;18963;51.504;5.316;2023-04-03T16:28:05;8.00;77.40
32522;DHT22;18963;51.504;5.316;2023-04-03T16:30:33;8.00;77.60
32522;DHT22;18963;51.504;5.316;2023-04-03T16:32:59;7.90;76.80
32522;DHT22;18963;51.504;5.316;2023-04-03T16:35:25;7.90;80.30
32522;DHT22;18963;51.504;5.316;2023-04-03T16:37:50;7.90;78.30
32522;DHT22;18963;51.504;5.316;2023-04-03T16:40:16;7.80;77.60
32522;DHT22;18963;51.504;5.316;2023-04-03T16:42:41;7.80;79.60
32522;DHT22;18963;51.504;5.316;2023-04-03T16:45:07;7.80;79.00
32522;DHT22;18963;51.504;5.316;2023-04-03T16:47:32;7.80;74.70
32522;DHT22;18963;51.504;5.316;2023-04-03T16:49:58;7.80;78.90
32522;DHT22;18963;51.504;5.316;2023-04-03T16:52:24;7.70;78.50
32522;DHT22;18963;51.504;5.316;2023-04-03T16:54:49;7.60;78.50
32522;DHT22;18963;51.504;5.316;2023-04-03T16:57:16;7.60;79.50
32522;DHT22;18963;51.504;5.316;2023-04-03T16:59:42;7.60;79.60
32522;DHT22;18963;51.504;5.316;2023-04-03T17:02:13;7.60;81.80
32522;DHT22;18963;51.504;5.316;2023-04-03T17:04:39;7.50;79.30
32522;DHT22;18963;51.504;5.316;2023-04-03T17:07:04;7.50;81.80